Date,TemperatureHighF,TemperatureAvgF,TemperatureLowF,DewpointHighF,DewpointAvgF,DewpointLowF,HumidityHigh,HumidityAvg,HumidityLow,PressureMaxIn,PressureMinIn,WindSpeedMaxMPH,WindSpeedAvgMPH,GustSpeedMaxMPH,PrecipitationSumIn
2013-2-1,15.7,13.4,9.8,13.8,10.8,7.2,92,89,82,30.24,29.92,5,3,12,0.00
2013-2-2,19.0,12.6,0.9,15.5,9.0,-2.1,93,85,70,30.16,30.00,2,0,4,0.00
2013-2-3,19.8,14.3,4.6,16.6,10.9,1.8,91,86,82,30.02,29.89,4,0,5,0.00
2013-2-4,24.1,16.8,8.3,18.2,13.4,5.6,92,87,76,30.01,29.88,5,1,6,0.00
2013-2-5,28.6,19.2,4.4,26.6,16.4,2.1,93,89,81,30.01,29.77,7,3,11,0.00
2013-2-6,32.5,24.6,12.0,21.8,18.5,10.1,95,78,63,30.25,30.01,7,2,9,0.35
2013-2-7,32.2,29.4,27.2,31.7,26.5,20.1,100,89,73,30.19,29.84,11,7,13,0.08
2013-2-8,32.1,25.9,8.8,30.2,22.3,6.2,100,87,67,30.36,29.83,9,4,12,0.18
2013-2-9,30.7,18.5,1.1,20.7,13.2,-2.6,92,80,65,30.41,30.18,10,4,11,0.01
2013-2-10,40.9,30.4,17.0,40.3,26.6,14.3,98,86,72,30.18,29.52,19,9,21,0.37
2013-2-11,44.6,34.4,29.5,42.8,31.4,23.2,100,89,75,29.88,29.48,23,14,35,0.01
2013-2-12,29.7,27.9,26.1,24.2,23.0,21.3,89,82,76,30.03,29.88,12,8,16,0.00
2013-2-13,37.0,29.5,21.8,29.2,25.1,19.3,92,84,71,29.91,29.70,9,4,10,0.00
2013-2-14,38.6,32.8,27.8,34.2,30.9,25.2,98,93,78,29.88,29.60,16,8,22,0.07
2013-2-15,27.8,23.5,19.9,25.0,18.0,14.3,91,80,63,30.13,29.88,11,4,12,0.00
2013-2-16,21.6,16.9,9.5,18.3,13.9,6.9,93,88,72,30.11,30.03,8,2,12,0.06
2013-2-17,22.4,12.4,-0.4,10.5,5.5,-3.6,89,74,58,30.24,30.11,9,3,11,0.00
2013-2-18,43.6,33.3,18.4,41.0,24.2,9.3,96,70,58,30.13,29.39,19,12,21,0.15
2013-2-19,42.6,23.8,15.7,41.2,22.0,13.3,96,92,89,29.98,29.34,19,14,22,0.09
2013-2-20,21.8,18.6,14.9,16.2,14.3,12.5,91,83,74,30.30,29.98,10,6,16,0.00
2013-2-21,26.7,22.5,20.0,18.8,16.2,13.6,82,77,68,30.37,30.15,14,6,15,0.00
2013-2-22,32.5,26.0,20.6,32.0,23.9,15.0,98,92,78,30.15,29.82,15,9,28,0.00
2013-2-23,30.6,27.8,25.1,28.0,24.6,19.1,94,88,67,29.89,29.81,15,8,16,0.00
2013-2-24,35.6,29.4,19.5,28.4,24.4,17.6,93,82,65,30.14,29.87,11,5,15,0.06
2013-2-25,40.9,27.7,14.8,27.3,20.7,12.9,95,77,49,30.20,30.06,7,2,8,0.00
2013-2-26,33.5,30.9,27.6,32.2,25.4,20.5,100,81,64,30.08,29.49,17,9,22,0.07
2013-2-27,36.8,33.8,32.2,36.8,33.8,32.2,100,100,100,29.59,29.45,6,2,7,0.47
2013-2-28,36.5,33.0,29.8,32.8,30.0,24.4,100,89,78,29.98,29.59,8,5,10,0.17